createdAt,value
2023-03-06T00:01:19.885Z,101547.84
2023-03-06T00:03:49.952Z,101551.13
2023-03-06T00:06:19.932Z,101555.84
2023-03-06T00:08:49.969Z,101558.59
2023-03-06T00:11:20.060Z,101567.09
2023-03-06T00:13:49.968Z,101559.38
2023-03-06T00:16:20.044Z,101559.38
2023-03-06T00:18:50.186Z,101559.91
2023-03-06T00:21:20.635Z,101563.50
2023-03-06T00:23:50.756Z,101572.28
2023-03-06T00:26:21.197Z,101580.84
2023-03-06T00:28:51.039Z,101588.56
2023-03-06T00:31:21.139Z,101590.22
2023-03-06T00:33:51.752Z,101597.94
2023-03-06T00:36:21.972Z,101594.91
2023-03-06T00:38:52.056Z,101598.50
2023-03-06T00:41:22.351Z,101594.31
2023-03-06T00:43:53.272Z,101603.13
2023-03-06T00:46:23.416Z,101605.34
2023-03-06T00:48:53.435Z,101602.38
2023-03-06T00:51:24.204Z,101612.69
2023-03-06T00:53:54.308Z,101607.41
2023-03-06T00:56:24.328Z,101617.88
2023-03-06T00:58:54.217Z,101619.53
2023-03-06T01:01:24.144Z,101619.53
2023-03-06T01:03:54.160Z,101626.13
2023-03-06T01:06:24.165Z,101623.06
2023-03-06T01:08:54.079Z,101629.19
2023-03-06T01:11:24.173Z,101632.28
2023-03-06T01:13:54.400Z,101635.59
2023-03-06T01:16:24.669Z,101640.47
2023-03-06T01:18:54.752Z,101641.56
2023-03-06T01:21:25.982Z,101643.50
2023-03-06T01:23:56.050Z,101647.31
2023-03-06T01:26:26.870Z,101653.88
2023-03-06T01:28:59.505Z,101647.84
2023-03-06T01:31:31.695Z,101647.56
2023-03-06T01:34:01.782Z,101652.00
2023-03-06T01:36:31.718Z,101658.03
2023-03-06T01:39:01.755Z,101648.66
2023-03-06T01:41:32.379Z,101658.59
2023-03-06T01:44:02.641Z,101663.00
2023-03-06T01:46:44.037Z,101659.94
2023-03-06T01:49:16.595Z,101666.53
2023-03-06T01:51:55.387Z,101670.16
2023-03-06T01:54:30.784Z,101665.47
2023-03-06T01:57:07.879Z,101665.47
2023-03-06T01:59:40.358Z,101669.03
2023-03-06T02:02:13.255Z,101677.03
2023-03-06T02:04:46.335Z,101679.75
2023-03-06T02:07:19.300Z,101678.59
2023-03-06T02:09:49.670Z,101683.34
2023-03-06T02:12:21.869Z,101692.91
2023-03-06T02:14:52.770Z,101691.25
2023-03-06T02:17:25.611Z,101693.97
2023-03-06T02:20:06.846Z,101705.19
2023-03-06T02:23:11.917Z,101702.97
2023-03-06T02:25:49.034Z,101701.84
2023-03-06T02:28:23.276Z,101706.84
2023-03-06T02:30:56.152Z,101723.31
2023-03-06T02:33:29.246Z,101716.97
2023-03-06T02:36:05.216Z,101718.53
2023-03-06T02:38:46.245Z,101732.88
2023-03-06T02:41:16.986Z,101730.66
2023-03-06T02:43:52.448Z,101722.59
2023-03-06T02:46:22.765Z,101729.19
2023-03-06T02:48:52.925Z,101739.63
2023-03-06T02:51:25.360Z,101737.91
2023-03-06T02:53:55.881Z,101745.63
2023-03-06T02:56:25.995Z,101749.72
2023-03-06T02:58:56.207Z,101749.16
2023-03-06T03:01:27.625Z,101749.38
2023-03-06T03:03:57.916Z,101757.63
2023-03-06T03:06:27.855Z,101748.25
2023-03-06T03:08:57.882Z,101756.22
2023-03-06T03:11:27.996Z,101752.34
2023-03-06T03:13:58.488Z,101752.06
2023-03-06T03:16:30.772Z,101750.69
2023-03-06T03:19:01.825Z,101751.22
2023-03-06T03:21:34.048Z,101749.59
2023-03-06T03:24:04.559Z,101752.06
2023-03-06T03:26:34.401Z,101747.91
2023-03-06T03:29:14.443Z,101746.44
2023-03-06T03:31:45.276Z,101750.84
2023-03-06T03:34:15.511Z,101744.75
2023-03-06T03:36:46.220Z,101744.16
2023-03-06T03:39:17.745Z,101747.16
2023-03-06T04:15:19.451Z,101690.28
2023-03-06T04:17:50.773Z,101683.13
2023-03-06T04:20:24.330Z,101674.56
2023-03-06T04:22:55.997Z,101670.88
2023-03-06T04:25:26.247Z,101661.50
2023-03-06T04:27:56.625Z,101657.31
2023-03-06T04:30:27.001Z,101660.00
2023-03-06T04:32:57.341Z,101643.09
2023-03-06T04:35:27.803Z,101637.25
2023-03-06T04:38:03.619Z,101627.50
2023-03-06T04:40:36.694Z,101625.47
2023-03-06T04:43:07.575Z,101613.84
2023-03-06T04:45:38.264Z,101607.78
2023-03-06T04:48:08.684Z,101606.47
2023-03-06T04:50:40.213Z,101605.56
2023-03-06T04:53:11.135Z,101598.41
2023-03-06T04:55:41.442Z,101600.78
2023-03-06T04:58:12.610Z,101594.66
2023-03-06T05:00:42.518Z,101588.75
2023-03-06T05:03:13.861Z,101580.25
2023-03-06T05:05:44.730Z,101581.91
2023-03-06T05:08:17.547Z,101570.03
2023-03-06T05:10:47.864Z,101563.88
2023-03-06T05:13:17.788Z,101553.63
2023-03-06T05:15:47.845Z,101546.19
2023-03-06T05:18:17.871Z,101533.19
2023-03-06T05:20:48.047Z,101539.03
2023-03-06T05:23:18.148Z,101528.50
2023-03-06T05:25:48.070Z,101529.06
2023-03-06T05:28:18.346Z,101520.22
2023-03-06T05:30:48.949Z,101506.94
2023-03-06T05:33:19.273Z,101514.50
2023-03-06T05:35:50.990Z,101499.97
2023-03-06T05:38:21.376Z,101494.44
2023-03-06T05:40:51.314Z,101491.19
2023-03-06T05:43:21.249Z,101485.97
2023-03-06T05:45:52.622Z,101479.31
2023-03-06T05:48:22.790Z,101482.06
2023-03-06T05:51:01.846Z,101475.94
2023-03-06T05:53:32.600Z,101474.00
2023-03-06T05:56:08.361Z,101462.84
2023-03-06T05:58:38.700Z,101462.84
2023-03-06T06:01:17.640Z,101448.25
2023-03-06T06:03:48.250Z,101443.53
2023-03-06T06:06:18.510Z,101441.88
2023-03-06T06:08:48.698Z,101428.78
2023-03-06T06:11:20.420Z,101420.41
2023-03-06T06:13:51.670Z,101421.31
2023-03-06T06:16:21.605Z,101418.03
2023-03-06T06:18:51.523Z,101413.25
2023-03-06T06:21:22.153Z,101401.06
2023-03-06T06:23:52.249Z,101397.28
2023-03-06T06:26:22.225Z,101390.19
2023-03-06T06:28:52.120Z,101379.56
2023-03-06T06:31:22.102Z,101393.25
2023-03-06T06:33:52.036Z,101375.16
2023-03-06T06:36:23.431Z,101370.25
2023-03-06T06:38:53.840Z,101361.44
2023-03-06T06:44:17.666Z,101352.25
2023-03-06T06:49:39.099Z,101338.50
2023-03-06T06:52:10.175Z,101338.09
2023-03-06T06:54:40.458Z,101338.94
2023-03-06T06:57:10.384Z,101336.78
2023-03-06T06:59:40.728Z,101324.50
2023-03-06T07:02:13.485Z,101315.19
2023-03-06T07:04:56.549Z,101315.19
2023-03-06T07:07:33.228Z,101303.69
2023-03-06T07:10:03.388Z,101305.78
2023-03-06T07:12:35.355Z,101298.59
2023-03-06T07:15:07.247Z,101283.66
2023-03-06T07:17:37.619Z,101284.28
2023-03-06T07:20:09.223Z,101278.72
2023-03-06T07:22:50.271Z,101276.88
2023-03-06T07:25:22.315Z,101268.09
2023-03-06T07:27:56.813Z,101267.28
2023-03-06T07:30:27.650Z,101262.88
2023-03-06T07:32:59.540Z,101263.44
2023-03-06T07:35:30.028Z,101259.22
2023-03-06T07:38:00.239Z,101249.28
2023-03-06T07:40:30.483Z,101250.94
2023-03-06T07:43:16.965Z,101235.69
2023-03-06T07:46:00.444Z,101236.81
2023-03-06T07:48:30.955Z,101236.81
2023-03-06T07:51:03.577Z,101235.97
2023-03-06T07:53:34.339Z,101224.75
2023-03-06T07:56:11.210Z,101221.47
2023-03-06T07:58:43.858Z,101223.00
2023-03-06T08:01:19.736Z,101213.41
2023-03-06T08:03:51.292Z,101212.78
2023-03-06T08:06:24.569Z,101209.00
2023-03-06T08:08:56.589Z,101199.41
2023-03-06T08:11:29.939Z,101200.44
2023-03-06T08:14:01.690Z,101193.72
2023-03-06T08:16:33.112Z,101189.00
2023-03-06T08:19:03.236Z,101187.41
2023-03-06T08:21:33.213Z,101178.94
2023-03-06T08:24:03.739Z,101183.63
2023-03-06T08:26:34.696Z,101181.88
2023-03-06T08:29:05.323Z,101177.47
2023-03-06T08:31:41.163Z,101173.59
2023-03-06T08:34:17.419Z,101166.41
2023-03-06T08:36:47.875Z,101164.16
2023-03-06T08:39:17.993Z,101155.66
2023-03-06T08:41:48.159Z,101159.91
2023-03-06T08:44:19.903Z,101151.75
2023-03-06T08:46:50.014Z,101151.75
2023-03-06T08:49:20.175Z,101153.06
2023-03-06T08:51:50.083Z,101151.75
2023-03-06T08:54:20.292Z,101155.66
2023-03-06T08:56:50.565Z,101144.59
2023-03-06T08:59:20.703Z,101151.56
2023-03-06T09:01:50.633Z,101150.13
2023-03-06T09:04:20.514Z,101145.56
2023-03-06T09:06:50.418Z,101145.91
2023-03-06T09:09:20.388Z,101143.59
2023-03-06T09:11:50.340Z,101137.06
2023-03-06T09:14:20.188Z,101142.78
2023-03-06T09:16:50.129Z,101142.97
2023-03-06T09:19:20.267Z,101136.94
2023-03-06T09:21:51.325Z,101134.03
2023-03-06T09:24:21.109Z,101134.03
2023-03-06T09:26:51.677Z,101128.00
2023-03-06T09:29:21.974Z,101141.50
2023-03-06T09:31:52.014Z,101138.56
2023-03-06T09:34:22.291Z,101140.31
2023-03-06T09:36:57.128Z,101135.00
2023-03-06T09:39:29.286Z,101147.47
2023-03-06T09:42:02.589Z,101145.03
2023-03-06T09:44:36.076Z,101139.34
2023-03-06T09:47:35.713Z,101140.31
2023-03-06T09:50:21.268Z,101141.91
2023-03-06T09:52:59.888Z,101153.34
2023-03-06T09:55:34.958Z,101146.50
2023-03-06T09:58:23.630Z,101148.81
2023-03-06T10:01:23.245Z,101147.81
2023-03-06T10:04:31.178Z,101140.81
2023-03-06T10:07:18.475Z,101150.25
2023-03-06T10:09:54.821Z,101148.59
2023-03-06T10:12:30.791Z,101148.94
2023-03-06T10:15:07.116Z,101151.88
2023-03-06T10:17:43.293Z,101147.81
2023-03-06T10:20:29.195Z,101154.91
2023-03-06T10:23:15.757Z,101155.94
2023-03-06T10:25:54.820Z,101153.78
2023-03-06T10:28:38.657Z,101172.00
2023-03-06T10:31:27.967Z,101170.66
2023-03-06T10:34:03.700Z,101175.38
2023-03-06T10:36:33.826Z,101170.88
2023-03-06T10:39:12.151Z,101171.16
2023-03-06T10:41:42.975Z,101176.69
2023-03-06T10:44:14.144Z,101188.69
2023-03-06T10:46:49.784Z,101192.38
2023-03-06T10:49:38.680Z,101191.63
2023-03-06T10:52:17.794Z,101194.41
2023-03-06T10:54:48.101Z,101201.19
2023-03-06T10:57:22.608Z,101198.09
2023-03-06T11:00:06.819Z,101199.13
2023-03-06T11:02:40.639Z,101202.59
2023-03-06T11:05:22.538Z,101204.94
2023-03-06T11:08:01.633Z,101210.59
2023-03-06T11:10:33.958Z,101208.78
2023-03-06T11:13:23.197Z,101217.53
2023-03-06T11:16:10.052Z,101216.75
2023-03-06T11:18:45.360Z,101221.75
2023-03-06T11:21:30.329Z,101223.22
2023-03-06T11:24:06.200Z,101222.09
2023-03-06T11:26:48.677Z,101231.56
2023-03-06T11:29:50.330Z,101227.28
2023-03-06T11:32:25.612Z,101229.09
2023-03-06T11:35:12.022Z,101235.41
2023-03-06T11:38:07.015Z,101238.44
2023-03-06T11:40:45.753Z,101232.13
2023-03-06T11:43:33.962Z,101247.06
2023-03-06T11:46:33.406Z,101251.28
2023-03-06T11:49:26.951Z,101252.06
2023-03-06T11:52:10.253Z,101256.81
2023-03-06T11:54:40.381Z,101259.13
2023-03-06T11:57:26.333Z,101262.84
2023-03-06T12:00:18.308Z,101267.53
2023-03-06T12:03:06.715Z,101261.72
2023-03-06T12:05:39.584Z,101268.03
2023-03-06T12:08:15.129Z,101273.56
2023-03-06T12:10:51.872Z,101273.06
2023-03-06T12:13:42.403Z,101273.38
2023-03-06T12:16:51.046Z,101284.28
2023-03-06T12:19:42.245Z,101278.75
2023-03-06T12:22:40.343Z,101295.47
2023-03-06T12:25:30.839Z,101298.25
2023-03-06T12:30:59.736Z,101300.06
2023-03-06T12:33:46.646Z,101299.88
2023-03-06T12:36:19.631Z,101302.31
2023-03-06T12:39:23.009Z,101311.22
2023-03-06T12:42:23.747Z,101317.75
2023-03-06T12:44:59.906Z,101324.03
2023-03-06T12:47:31.574Z,101327.28
2023-03-06T12:53:07.134Z,101335.38
2023-03-06T12:55:47.354Z,101341.00
2023-03-06T12:58:32.442Z,101338.56
2023-03-06T13:01:16.295Z,101349.38
2023-03-06T13:04:04.710Z,101347.75
2023-03-06T13:09:11.478Z,101353.28
2023-03-06T13:12:00.178Z,101356.53
2023-03-06T13:14:37.570Z,101356.75
2023-03-06T13:19:18.553Z,101355.31
2023-03-06T13:22:02.649Z,101365.34
2023-03-06T13:24:34.420Z,101372.13
2023-03-06T13:27:15.899Z,101370.25
2023-03-06T13:29:53.856Z,101370.69
2023-03-06T13:32:32.488Z,101384.81
2023-03-06T13:35:04.054Z,101378.44
2023-03-06T13:37:37.668Z,101373.44
2023-03-06T13:40:08.866Z,101377.31
2023-03-06T13:42:59.831Z,101384.63
2023-03-06T13:45:40.242Z,101383.16
2023-03-06T13:48:43.043Z,101386.25
2023-03-06T13:51:30.515Z,101382.97
2023-03-06T13:54:54.227Z,101388.59
2023-03-06T13:57:41.416Z,101390.44
2023-03-06T14:00:15.114Z,101394.53
2023-03-06T14:03:07.166Z,101392.94
2023-03-06T14:05:52.444Z,101404.31
2023-03-06T14:08:32.892Z,101399.38
2023-03-06T14:11:23.467Z,101412.16
2023-03-06T14:13:57.490Z,101410.91
2023-03-06T14:16:48.926Z,101413.94
2023-03-06T14:19:21.156Z,101416.63
2023-03-06T14:22:00.977Z,101412.31
2023-03-06T14:24:37.621Z,101417.34
2023-03-06T14:27:08.021Z,101422.75
2023-03-06T14:29:38.381Z,101429.19
2023-03-06T14:32:13.232Z,101434.00
2023-03-06T14:34:49.145Z,101435.31
2023-03-06T14:37:26.799Z,101430.13
2023-03-06T14:39:58.478Z,101437.59
2023-03-06T14:42:32.130Z,101435.97
2023-03-06T14:45:08.384Z,101433.09
2023-03-06T14:47:39.713Z,101438.09
2023-03-06T14:50:32.726Z,101437.69
2023-03-06T14:53:11.555Z,101436.88
2023-03-06T14:55:52.573Z,101436.69
2023-03-06T14:58:57.767Z,101439.44
2023-03-06T15:01:59.218Z,101438.31
2023-03-06T15:04:42.810Z,101445.16
2023-03-06T15:07:20.349Z,101445.25
2023-03-06T15:09:55.151Z,101440.03
2023-03-06T15:12:36.115Z,101439.84
2023-03-06T15:15:28.371Z,101448.41
2023-03-06T15:18:41.185Z,101447.00
2023-03-06T15:21:22.973Z,101439.84
2023-03-06T15:23:56.339Z,101435.75
2023-03-06T15:26:55.614Z,101436.06
2023-03-06T15:29:26.537Z,101442.72
2023-03-06T15:32:30.571Z,101435.03
2023-03-06T15:35:38.209Z,101436.16
2023-03-06T15:38:26.719Z,101442.50
2023-03-06T15:41:02.508Z,101448.00
2023-03-06T15:43:41.678Z,101442.81
2023-03-06T15:46:15.410Z,101449.13
2023-03-06T15:49:01.153Z,101452.22
2023-03-06T15:51:35.706Z,101451.69
2023-03-06T15:54:12.441Z,101447.69
2023-03-06T15:56:45.468Z,101445.03
2023-03-06T15:59:34.257Z,101443.41
2023-03-06T16:02:18.517Z,101444.53
2023-03-06T16:04:49.174Z,101448.44
2023-03-06T16:07:20.116Z,101447.31
2023-03-06T16:09:50.660Z,101444.03
2023-03-06T16:12:25.050Z,101440.44
2023-03-06T16:14:55.473Z,101448.72
2023-03-06T16:17:25.550Z,101449.84
2023-03-06T16:19:55.487Z,101453.44
2023-03-06T16:22:25.538Z,101447.06
2023-03-06T16:24:55.567Z,101444.81
2023-03-06T16:27:27.969Z,101445.94
2023-03-06T16:29:58.093Z,101447.34
2023-03-06T16:32:29.283Z,101442.97
2023-03-06T16:34:59.012Z,101441.00
2023-03-06T16:37:28.998Z,101439.38
2023-03-06T16:39:59.146Z,101440.00
2023-03-06T16:42:31.080Z,101441.63
2023-03-06T16:45:01.194Z,101440.00
2023-03-06T16:47:33.974Z,101446.31
2023-03-06T16:50:04.674Z,101440.28
2023-03-06T16:52:34.787Z,101439.75
2023-03-06T16:55:04.816Z,101441.41
2023-03-06T16:57:37.959Z,101439.75
2023-03-06T17:00:08.932Z,101443.97
2023-03-06T17:02:39.285Z,101453.88
2023-03-06T17:05:10.871Z,101451.44
2023-03-06T17:07:41.727Z,101449.78
2023-03-06T17:10:14.944Z,101447.31
2023-03-06T17:12:45.588Z,101441.50
2023-03-06T17:15:15.806Z,101450.09
2023-03-06T17:17:45.989Z,101442.63
2023-03-06T17:20:16.141Z,101444.28
2023-03-06T17:22:46.337Z,101435.47
2023-03-06T17:25:16.568Z,101426.69
2023-03-06T17:27:46.609Z,101427.19
2023-03-06T17:30:17.152Z,101426.69
2023-03-06T17:32:47.299Z,101423.41
2023-03-06T17:35:17.416Z,101417.88
2023-03-06T17:37:47.352Z,101418.47
2023-03-06T17:40:19.100Z,101411.84
2023-03-06T17:42:49.251Z,101416.84
2023-03-06T17:45:19.350Z,101414.59
2023-03-06T17:47:49.518Z,101412.66
2023-03-06T17:50:19.842Z,101401.13
2023-03-06T17:52:49.923Z,101400.28
2023-03-06T17:55:20.308Z,101398.63
2023-03-06T17:57:50.408Z,101394.28
2023-03-06T18:00:20.977Z,101393.13
2023-03-06T18:02:51.260Z,101396.19
2023-03-06T18:05:23.004Z,101394.28
2023-03-06T18:07:53.105Z,101388.75
2023-03-06T18:10:22.981Z,101383.84
2023-03-06T18:12:53.346Z,101381.59
2023-03-06T18:15:23.521Z,101374.44
2023-03-06T18:17:53.722Z,101378.00
2023-03-06T18:20:23.857Z,101382.19
2023-03-06T18:22:53.872Z,101371.44
2023-03-06T18:25:23.909Z,101367.28
2023-03-06T18:27:54.036Z,101356.53
2023-03-06T18:30:24.173Z,101367.28
2023-03-06T18:32:54.035Z,101362.88
2023-03-06T18:35:24.346Z,101367.03
2023-03-06T18:37:54.356Z,101351.00
2023-03-06T18:40:31.502Z,101357.16
2023-03-06T18:43:01.592Z,101355.50
2023-03-06T18:45:31.542Z,101347.53
2023-03-06T18:48:01.813Z,101339.44
2023-03-06T18:50:31.883Z,101336.50
2023-03-06T18:53:01.761Z,101334.84
2023-03-06T18:55:31.624Z,101341.81
2023-03-06T18:58:01.556Z,101337.09
2023-03-06T19:00:31.499Z,101329.66
2023-03-06T19:03:01.342Z,101335.44
2023-03-06T19:05:31.174Z,101325.56
2023-03-06T19:08:01.245Z,101322.81
2023-03-06T19:10:32.684Z,101327.50
2023-03-06T19:13:02.677Z,101320.06
2023-03-06T19:15:33.328Z,101314.81
2023-03-06T19:18:04.504Z,101317.91
2023-03-06T19:20:37.703Z,101310.41
2023-03-06T19:23:08.376Z,101308.78
2023-03-06T19:25:38.824Z,101308.25
2023-03-06T19:28:09.171Z,101309.09
2023-03-06T19:30:43.009Z,101303.59
2023-03-06T19:33:13.226Z,101308.59
2023-03-06T19:35:43.109Z,101309.09
2023-03-06T19:38:13.345Z,101297.56
2023-03-06T19:40:43.486Z,101304.38
2023-03-06T19:43:13.347Z,101299.19
2023-03-06T19:45:46.998Z,101302.25
2023-03-06T19:48:17.084Z,101301.44
2023-03-06T19:50:46.929Z,101297.34
2023-03-06T19:53:18.168Z,101294.78
2023-03-06T19:55:47.855Z,101299.50
2023-03-06T19:58:17.837Z,101294.19
2023-03-06T20:00:47.769Z,101288.94
2023-03-06T20:03:17.624Z,101291.31
2023-03-06T20:05:50.660Z,101289.88
2023-03-06T20:08:20.842Z,101286.31
2023-03-06T20:10:50.673Z,101294.59
2023-03-06T20:13:20.502Z,101288.47
2023-03-06T20:15:50.559Z,101288.25
2023-03-06T20:18:20.823Z,101288.56
2023-03-06T20:21:02.436Z,101282.72
2023-03-06T20:23:33.573Z,101291.00
2023-03-06T20:26:09.296Z,101287.44
2023-03-06T20:28:40.570Z,101282.19
2023-03-06T20:31:18.559Z,101285.19
2023-03-06T20:33:50.229Z,101283.31
2023-03-06T20:36:23.596Z,101287.72
2023-03-06T20:38:53.871Z,101290.47
2023-03-06T20:41:27.138Z,101278.63
2023-03-06T20:43:57.259Z,101285.03
2023-03-06T20:46:27.379Z,101281.72
2023-03-06T20:48:58.473Z,101274.56
2023-03-06T20:51:32.296Z,101281.44
2023-03-06T20:54:04.396Z,101278.19
2023-03-06T20:56:36.843Z,101272.66
2023-03-06T20:59:07.902Z,101275.13
2023-03-06T21:01:43.110Z,101273.19
2023-03-06T21:04:18.264Z,101270.16
2023-03-06T21:06:49.134Z,101269.84
2023-03-06T21:09:19.921Z,101276.25
2023-03-06T21:11:50.252Z,101267.41
2023-03-06T21:14:20.250Z,101268.78
2023-03-06T21:16:50.202Z,101260.81
2023-03-06T21:19:23.395Z,101263.91
2023-03-06T21:21:53.384Z,101269.69
2023-03-06T21:24:23.224Z,101266.34
2023-03-06T21:26:54.065Z,101266.13
2023-03-06T21:29:24.061Z,101270.03
2023-03-06T21:31:53.919Z,101276.94
2023-03-06T21:34:24.014Z,101276.34
2023-03-06T21:36:53.938Z,101272.78
2023-03-06T21:39:24.060Z,101270.03
2023-03-06T21:41:54.105Z,101272.47
2023-03-06T21:44:23.897Z,101275.81
2023-03-06T21:46:53.745Z,101277.47
2023-03-06T21:49:29.118Z,101283.56
2023-03-06T21:51:59.226Z,101283.09
2023-03-06T21:54:31.338Z,101278.16
2023-03-06T21:57:01.463Z,101289.72
2023-03-06T21:59:31.325Z,101282.78
2023-03-06T22:02:01.365Z,101291.84
2023-03-06T22:04:31.427Z,101288.28
2023-03-06T22:07:01.570Z,101287.75
2023-03-06T22:09:31.675Z,101292.47
2023-03-06T22:12:01.465Z,101282.25
2023-03-06T22:14:31.513Z,101296.94
2023-03-06T22:17:02.199Z,101301.34
2023-03-06T22:19:32.289Z,101304.69
2023-03-06T22:22:02.136Z,101302.47
2023-03-06T22:24:33.843Z,101315.66
2023-03-06T22:27:03.903Z,101311.47
2023-03-06T22:29:34.042Z,101316.19
2023-03-06T22:32:04.139Z,101319.81
2023-03-06T22:34:34.514Z,101319.31
2023-03-06T22:37:04.394Z,101326.75
2023-03-06T22:39:34.521Z,101325.97
2023-03-06T22:42:04.309Z,101326.75
2023-03-06T22:44:34.275Z,101333.91
2023-03-06T22:47:04.155Z,101343.81
2023-03-06T22:49:33.985Z,101343.75
2023-03-06T22:53:08.079Z,101354.53
2023-03-06T22:55:38.289Z,101360.91
2023-03-06T22:58:08.459Z,101354.13
2023-03-06T23:00:38.265Z,101357.78
2023-03-06T23:03:08.292Z,101365.63
2023-03-06T23:05:44.693Z,101372.75
2023-03-06T23:08:14.627Z,101367.09
2023-03-06T23:10:44.408Z,101379.47
2023-03-06T23:13:32.784Z,101379.56
2023-03-06T23:16:23.570Z,101377.09
2023-03-06T23:19:12.225Z,101382.31
2023-03-06T23:22:00.538Z,101391.69
2023-03-06T23:24:49.033Z,101391.19
2023-03-06T23:27:19.337Z,101398.13
2023-03-06T23:29:52.358Z,101395.84
2023-03-06T23:32:22.278Z,101405.38
2023-03-06T23:34:52.302Z,101404.59
2023-03-06T23:37:22.609Z,101410.09
2023-03-06T23:39:52.790Z,101423.66
2023-03-06T23:42:22.947Z,101417.09
2023-03-06T23:44:52.927Z,101418.00
2023-03-06T23:47:22.807Z,101420.75
2023-03-06T23:49:52.766Z,101426.47
2023-03-06T23:52:22.676Z,101425.16
2023-03-06T23:54:52.545Z,101429.75
2023-03-06T23:57:22.620Z,101430.06
2023-03-06T23:59:52.427Z,101435.59
